createdAt,value
2023-05-07T00:01:17.512Z,14.27
2023-05-07T00:04:22.731Z,12.75
2023-05-07T00:07:24.585Z,12.88
2023-05-07T00:10:26.850Z,12.60
2023-05-07T00:13:28.592Z,11.95
2023-05-07T00:16:30.846Z,11.25
2023-05-07T00:19:34.202Z,11.45
2023-05-07T00:22:38.732Z,11.97
2023-05-07T00:25:41.932Z,13.02
2023-05-07T00:28:43.728Z,10.77
2023-05-07T00:31:45.894Z,10.30
2023-05-07T00:34:48.744Z,11.47
2023-05-07T00:37:50.791Z,11.13
2023-05-07T00:40:52.875Z,10.25
2023-05-07T00:43:55.898Z,11.07
2023-05-07T00:46:58.984Z,11.75
2023-05-07T00:50:04.819Z,10.63
2023-05-07T00:53:10.242Z,13.10
2023-05-07T00:56:12.980Z,12.40
2023-05-07T00:59:14.632Z,13.30
2023-05-07T01:02:18.322Z,11.35
2023-05-07T01:05:24.193Z,12.60
2023-05-07T01:08:29.107Z,11.30
2023-05-07T01:11:32.181Z,15.60
2023-05-07T01:14:38.600Z,13.25
2023-05-07T01:17:42.383Z,12.40
2023-05-07T01:20:50.096Z,12.65
2023-05-07T01:23:55.689Z,12.48
2023-05-07T01:26:59.526Z,14.17
2023-05-07T01:30:01.222Z,12.82
2023-05-07T01:33:13.613Z,12.68
2023-05-07T01:36:16.390Z,11.65
2023-05-07T01:39:18.268Z,13.15
2023-05-07T01:42:20.927Z,17.25
2023-05-07T01:45:23.303Z,10.82
2023-05-07T01:48:25.850Z,11.50
2023-05-07T01:51:28.202Z,12.73
2023-05-07T01:54:32.204Z,11.57
2023-05-07T01:57:38.759Z,12.73
2023-05-07T02:00:41.870Z,10.93
2023-05-07T02:03:44.542Z,13.07
2023-05-07T02:06:55.024Z,11.63
2023-05-07T02:09:57.879Z,11.57
2023-05-07T02:13:03.233Z,11.38
2023-05-07T02:16:06.450Z,10.90
2023-05-07T02:19:08.560Z,10.18
2023-05-07T02:22:11.990Z,10.33
2023-05-07T02:25:14.805Z,10.75
2023-05-07T02:28:18.188Z,10.77
2023-05-07T02:31:26.731Z,13.07
2023-05-07T02:34:32.274Z,11.07
2023-05-07T02:37:33.965Z,11.88
2023-05-07T02:40:39.721Z,10.60
2023-05-07T02:43:41.866Z,10.50
2023-05-07T02:46:44.245Z,10.80
2023-05-07T02:49:48.692Z,11.52
2023-05-07T02:52:53.549Z,10.80
2023-05-07T02:56:01.232Z,9.65
2023-05-07T02:59:03.973Z,14.38
2023-05-07T03:02:09.546Z,11.07
2023-05-07T03:05:13.114Z,10.77
2023-05-07T03:08:16.627Z,10.18
2023-05-07T03:11:19.060Z,10.98
2023-05-07T03:14:24.058Z,11.20
2023-05-07T03:17:26.685Z,11.57
2023-05-07T03:20:28.940Z,11.45
2023-05-07T03:23:34.820Z,11.68
2023-05-07T03:26:36.884Z,10.83
2023-05-07T03:29:39.092Z,11.38
2023-05-07T03:32:41.310Z,10.90
2023-05-07T03:35:46.825Z,12.07
2023-05-07T03:38:55.645Z,11.25
2023-05-07T03:42:02.021Z,12.27
2023-05-07T03:45:06.320Z,10.55
2023-05-07T03:48:09.855Z,14.40
2023-05-07T03:51:12.138Z,11.10
2023-05-07T03:54:14.806Z,12.18
2023-05-07T03:57:20.451Z,11.67
2023-05-07T04:00:23.230Z,10.23
2023-05-07T04:03:26.195Z,10.98
2023-05-07T04:06:29.857Z,12.18
2023-05-07T04:09:32.054Z,11.23
2023-05-07T04:12:34.729Z,12.52
2023-05-07T04:15:37.741Z,11.82
2023-05-07T04:18:43.843Z,11.43
2023-05-07T04:21:45.605Z,11.23
2023-05-07T04:24:49.069Z,9.85
2023-05-07T04:27:51.855Z,12.70
2023-05-07T04:30:56.450Z,11.77
2023-05-07T04:33:58.800Z,12.65
2023-05-07T04:37:05.424Z,11.68
2023-05-07T04:40:08.742Z,10.87
2023-05-07T04:43:11.558Z,10.75
2023-05-07T04:46:20.888Z,11.85
2023-05-07T04:49:25.557Z,10.50
2023-05-07T04:52:32.095Z,10.23
2023-05-07T04:55:34.934Z,12.02
2023-05-07T04:58:37.597Z,10.18
2023-05-07T05:01:41.555Z,10.85
2023-05-07T05:04:43.840Z,10.65
2023-05-07T05:07:46.548Z,12.85
2023-05-07T05:10:50.792Z,11.83
2023-05-07T05:13:53.458Z,11.68
2023-05-07T05:17:00.013Z,14.30
2023-05-07T05:20:02.926Z,9.83
2023-05-07T05:23:05.688Z,10.60
2023-05-07T05:26:08.920Z,12.73
2023-05-07T05:29:11.893Z,12.95
2023-05-07T05:32:16.644Z,11.23
2023-05-07T05:35:20.503Z,11.20
2023-05-07T05:38:22.580Z,12.40
2023-05-07T05:41:28.963Z,11.60
2023-05-07T05:44:34.980Z,12.18
2023-05-07T05:47:38.381Z,11.80
2023-05-07T05:50:40.102Z,12.60
2023-05-07T05:53:43.340Z,10.85
2023-05-07T05:56:45.156Z,11.65
2023-05-07T05:59:50.284Z,14.10
2023-05-07T06:02:52.121Z,11.90
2023-05-07T06:06:01.005Z,13.38
2023-05-07T06:09:03.692Z,12.35
2023-05-07T06:12:13.336Z,11.73
2023-05-07T06:15:15.719Z,13.23
2023-05-07T06:18:19.745Z,11.82
2023-05-07T06:21:22.387Z,12.90
2023-05-07T06:24:24.329Z,12.33
2023-05-07T06:27:29.398Z,12.80
2023-05-07T06:30:35.548Z,12.95
2023-05-07T06:33:37.696Z,13.95
2023-05-07T06:36:44.472Z,14.68
2023-05-07T06:40:10.023Z,13.23
2023-05-07T06:43:16.274Z,15.10
2023-05-07T06:46:27.417Z,14.00
2023-05-07T06:49:30.087Z,12.60
2023-05-07T06:52:34.386Z,14.45
2023-05-07T06:55:42.334Z,14.13
2023-05-07T06:58:46.413Z,13.60
2023-05-07T07:01:51.909Z,13.45
2023-05-07T07:04:56.080Z,13.75
2023-05-07T07:08:03.082Z,13.27
2023-05-07T07:11:04.928Z,12.30
2023-05-07T07:14:07.732Z,13.38
2023-05-07T07:17:15.732Z,13.93
2023-05-07T07:20:17.939Z,13.27
2023-05-07T07:23:22.596Z,13.77
2023-05-07T07:26:24.546Z,13.40
2023-05-07T07:29:27.744Z,13.02
2023-05-07T07:32:30.892Z,13.05
2023-05-07T07:35:36.286Z,13.10
2023-05-07T07:38:40.922Z,13.60
2023-05-07T07:41:43.444Z,12.68
2023-05-07T07:44:46.225Z,13.90
2023-05-07T07:47:51.331Z,12.93
2023-05-07T07:50:53.392Z,12.10
2023-05-07T07:53:56.062Z,12.73
2023-05-07T07:56:59.196Z,12.98
2023-05-07T08:00:05.136Z,12.27
2023-05-07T08:03:08.505Z,13.40
2023-05-07T08:06:15.266Z,12.52
2023-05-07T08:09:17.605Z,11.75
2023-05-07T08:12:21.932Z,10.30
2023-05-07T08:15:24.187Z,10.70
2023-05-07T08:18:27.722Z,10.05
2023-05-07T08:21:33.739Z,11.25
2023-05-07T08:24:37.729Z,10.43
2023-05-07T08:27:39.565Z,10.15
2023-05-07T08:30:41.821Z,8.97
2023-05-07T08:33:44.383Z,8.32
2023-05-07T08:36:48.606Z,8.30
2023-05-07T08:39:53.338Z,8.35
2023-05-07T08:42:59.698Z,9.55
2023-05-07T08:46:03.341Z,10.37
2023-05-07T08:49:09.195Z,9.55
2023-05-07T08:52:13.188Z,8.65
2023-05-07T08:55:16.261Z,10.50
2023-05-07T08:58:20.204Z,9.45
2023-05-07T09:01:22.157Z,8.67
2023-05-07T09:04:27.407Z,8.93
2023-05-07T09:07:31.474Z,9.88
2023-05-07T09:10:36.241Z,8.60
2023-05-07T09:13:40.277Z,7.40
2023-05-07T09:16:43.133Z,7.80
2023-05-07T09:19:49.405Z,8.75
2023-05-07T09:22:52.745Z,8.45
2023-05-07T09:26:01.870Z,8.50
2023-05-07T09:29:08.845Z,8.60
2023-05-07T09:32:11.429Z,11.57
2023-05-07T09:35:19.039Z,8.80
2023-05-07T09:38:29.986Z,7.78
2023-05-07T09:41:47.087Z,6.72
2023-05-07T09:44:56.038Z,8.30
2023-05-07T09:48:05.822Z,7.43
2023-05-07T09:51:35.091Z,6.93
2023-05-07T09:54:44.437Z,6.30
2023-05-07T09:57:48.599Z,7.15
2023-05-07T10:00:54.118Z,5.75
2023-05-07T10:03:57.097Z,6.10
2023-05-07T10:07:03.395Z,6.22
2023-05-07T10:10:08.251Z,5.18
2023-05-07T10:13:14.200Z,5.30
2023-05-07T10:16:22.278Z,5.82
2023-05-07T10:19:26.409Z,5.40
2023-05-07T10:22:39.752Z,4.80
2023-05-07T10:25:42.559Z,5.88
2023-05-07T10:29:00.401Z,5.00
2023-05-07T10:32:35.156Z,4.90
2023-05-07T10:35:44.322Z,6.40
2023-05-07T10:38:50.118Z,5.80
2023-05-07T10:41:54.728Z,5.30
2023-05-07T10:44:57.232Z,5.20
2023-05-07T10:48:28.080Z,5.03
2023-05-07T10:51:37.193Z,4.80
2023-05-07T10:55:18.947Z,5.53
2023-05-07T10:58:52.666Z,5.78
2023-05-07T11:02:07.834Z,4.85
2023-05-07T11:05:32.723Z,4.25
2023-05-07T11:08:59.928Z,5.30
2023-05-07T11:12:39.321Z,4.90
2023-05-07T11:15:49.943Z,5.13
2023-05-07T11:19:00.881Z,4.90
2023-05-07T11:22:36.665Z,5.78
2023-05-07T11:25:47.658Z,5.57
2023-05-07T11:28:55.442Z,5.05
2023-05-07T11:32:02.753Z,4.82
2023-05-07T11:35:11.002Z,4.82
2023-05-07T11:38:13.991Z,6.32
2023-05-07T11:41:18.556Z,4.90
2023-05-07T11:44:20.852Z,6.20
2023-05-07T11:47:23.592Z,5.60
2023-05-07T11:50:26.241Z,5.88
2023-05-07T11:53:30.001Z,6.60
2023-05-07T11:56:41.222Z,5.50
2023-05-07T11:59:52.510Z,4.73
2023-05-07T12:02:55.060Z,5.70
2023-05-07T12:05:57.449Z,6.63
2023-05-07T12:08:59.145Z,5.47
2023-05-07T12:12:06.158Z,5.87
2023-05-07T12:15:09.731Z,5.63
2023-05-07T12:18:13.813Z,5.43
2023-05-07T12:21:15.904Z,6.70
2023-05-07T12:24:21.742Z,5.50
2023-05-07T12:27:24.740Z,5.57
2023-05-07T12:30:27.815Z,5.83
2023-05-07T12:33:29.567Z,5.45
2023-05-07T12:36:41.254Z,5.30
2023-05-07T12:39:50.030Z,5.72
2023-05-07T12:42:57.048Z,6.53
2023-05-07T12:46:10.786Z,6.50
2023-05-07T12:49:13.556Z,5.47
2023-05-07T12:52:15.621Z,6.65
2023-05-07T12:55:18.403Z,6.32
2023-05-07T12:58:31.539Z,5.93
2023-05-07T13:01:35.607Z,5.70
2023-05-07T13:04:38.673Z,6.00
2023-05-07T13:07:43.933Z,5.82
2023-05-07T13:10:45.513Z,5.80
2023-05-07T13:13:49.246Z,5.83
2023-05-07T13:16:51.057Z,6.90
2023-05-07T13:19:57.054Z,5.72
2023-05-07T13:22:58.821Z,5.95
2023-05-07T13:26:04.090Z,7.13
2023-05-07T13:29:08.321Z,6.30
2023-05-07T13:32:10.543Z,5.20
2023-05-07T13:35:12.448Z,5.60
2023-05-07T13:38:14.457Z,6.22
2023-05-07T13:41:16.741Z,7.60
2023-05-07T13:44:18.901Z,5.30
2023-05-07T13:47:22.608Z,6.53
2023-05-07T13:50:27.872Z,6.90
2023-05-07T13:53:32.830Z,5.65
2023-05-07T13:56:35.476Z,5.55
2023-05-07T13:59:39.992Z,7.13
2023-05-07T14:02:42.486Z,6.23
2023-05-07T14:05:45.207Z,6.22
2023-05-07T14:08:47.438Z,5.68
2023-05-07T14:11:52.671Z,5.70
2023-05-07T14:14:54.880Z,6.93
2023-05-07T14:17:59.330Z,6.23
2023-05-07T14:21:01.289Z,5.57
2023-05-07T14:24:04.334Z,6.07
2023-05-07T14:27:06.837Z,7.20
2023-05-07T14:30:09.500Z,5.80
2023-05-07T14:33:11.705Z,8.43
2023-05-07T14:36:13.872Z,6.55
2023-05-07T14:39:15.544Z,6.10
2023-05-07T14:42:17.322Z,5.53
2023-05-07T14:45:21.483Z,5.63
2023-05-07T14:48:26.412Z,5.57
2023-05-07T14:51:29.919Z,6.25
2023-05-07T14:54:32.521Z,5.65
2023-05-07T14:57:35.935Z,6.45
2023-05-07T15:00:38.209Z,7.23
2023-05-07T15:03:40.816Z,5.37
2023-05-07T15:06:42.517Z,6.03
2023-05-07T15:09:44.928Z,5.72
2023-05-07T15:12:47.915Z,6.50
2023-05-07T15:15:50.927Z,5.67
2023-05-07T15:18:53.069Z,6.77
2023-05-07T15:21:57.777Z,6.28
2023-05-07T15:24:59.874Z,5.60
2023-05-07T15:28:02.063Z,5.70
2023-05-07T15:31:03.777Z,5.47
2023-05-07T15:34:05.438Z,7.13
2023-05-07T15:37:07.626Z,9.20
2023-05-07T15:40:10.096Z,7.07
2023-05-07T15:43:12.906Z,7.55
2023-05-07T15:46:24.555Z,6.53
2023-05-07T15:49:26.965Z,7.80
2023-05-07T15:52:30.263Z,5.75
2023-05-07T15:55:32.671Z,6.55
2023-05-07T15:58:34.939Z,6.95
2023-05-07T16:01:37.040Z,6.30
2023-05-07T16:04:38.650Z,6.07
2023-05-07T16:07:41.141Z,5.72
2023-05-07T16:10:43.278Z,6.10
2023-05-07T16:13:45.075Z,5.85
2023-05-07T16:16:47.199Z,6.03
2023-05-07T16:19:51.663Z,7.10
2023-05-07T16:22:53.281Z,6.35
2023-05-07T16:25:55.907Z,7.25
2023-05-07T16:28:58.790Z,5.88
2023-05-07T16:32:01.869Z,7.97
2023-05-07T16:35:04.543Z,7.47
2023-05-07T16:38:10.308Z,7.13
2023-05-07T16:41:13.297Z,6.38
2023-05-07T16:44:15.596Z,5.70
2023-05-07T16:47:17.212Z,5.50
2023-05-07T16:50:19.401Z,8.77
2023-05-07T16:53:21.062Z,6.43
2023-05-07T16:56:23.180Z,5.80
2023-05-07T16:59:24.813Z,5.97
2023-05-07T17:02:26.553Z,5.53
2023-05-07T17:05:28.741Z,5.70
2023-05-07T17:08:30.923Z,7.57
2023-05-07T17:11:34.148Z,6.07
2023-05-07T17:14:36.599Z,5.82
2023-05-07T17:17:38.773Z,6.50
2023-05-07T17:20:41.108Z,6.57
2023-05-07T17:23:43.204Z,5.88
2023-05-07T17:26:47.993Z,7.85
2023-05-07T17:29:50.432Z,6.10
2023-05-07T17:32:52.835Z,7.00
2023-05-07T17:35:55.231Z,6.40
2023-05-07T17:38:57.629Z,8.00
2023-05-07T17:41:59.280Z,6.15
2023-05-07T17:45:02.116Z,9.45
2023-05-07T17:48:05.916Z,6.80
2023-05-07T17:51:09.893Z,7.17
2023-05-07T17:54:11.581Z,7.05
2023-05-07T17:57:14.524Z,8.05
2023-05-07T18:00:17.008Z,7.32
2023-05-07T18:03:19.331Z,6.67
2023-05-07T18:06:23.631Z,6.85
2023-05-07T18:09:26.843Z,6.40
2023-05-07T18:12:28.677Z,7.22
2023-05-07T18:15:31.734Z,6.40
2023-05-07T18:18:35.416Z,7.70
2023-05-07T18:21:39.059Z,6.65
2023-05-07T18:24:40.643Z,6.63
2023-05-07T18:27:42.331Z,6.97
2023-05-07T18:30:44.541Z,7.05
2023-05-07T18:33:46.156Z,7.83
2023-05-07T18:36:48.952Z,7.05
2023-05-07T18:39:51.288Z,7.50
2023-05-07T18:42:52.944Z,6.78
2023-05-07T18:45:56.111Z,8.23
2023-05-07T18:48:58.722Z,6.90
2023-05-07T18:52:01.049Z,7.78
2023-05-07T18:55:04.751Z,8.70
2023-05-07T18:58:06.443Z,9.13
2023-05-07T19:01:08.765Z,9.63
2023-05-07T19:04:13.023Z,8.87
2023-05-07T19:07:15.456Z,9.13
2023-05-07T19:10:17.516Z,7.13
2023-05-07T19:13:19.621Z,9.32
2023-05-07T19:16:21.286Z,8.18
2023-05-07T19:19:22.923Z,7.47
2023-05-07T19:22:25.184Z,8.02
2023-05-07T19:25:27.749Z,9.27
2023-05-07T19:28:30.232Z,9.00
2023-05-07T19:31:33.756Z,11.32
2023-05-07T19:34:35.930Z,9.20
2023-05-07T19:37:37.543Z,7.63
2023-05-07T19:40:39.125Z,7.40
2023-05-07T19:43:41.778Z,7.97
2023-05-07T19:46:46.153Z,8.35
2023-05-07T19:49:48.583Z,8.00
2023-05-07T19:52:50.235Z,6.90
2023-05-07T19:56:03.185Z,6.43
2023-05-07T19:59:05.337Z,7.63
2023-05-07T20:02:07.757Z,6.95
2023-05-07T20:05:11.324Z,6.53
2023-05-07T20:08:14.408Z,7.38
2023-05-07T20:11:16.192Z,7.22
2023-05-07T20:14:18.986Z,6.53
2023-05-07T20:17:21.429Z,6.90
2023-05-07T20:20:24.041Z,6.50
2023-05-07T20:23:27.045Z,6.57
2023-05-07T20:26:29.324Z,6.40
2023-05-07T20:29:31.306Z,6.07
2023-05-07T20:32:33.497Z,5.95
2023-05-07T20:35:35.624Z,6.23
2023-05-07T20:38:37.710Z,6.93
2023-05-07T20:41:39.766Z,6.18
2023-05-07T20:44:42.009Z,5.50
2023-05-07T20:47:43.796Z,6.82
2023-05-07T20:50:45.909Z,4.97
2023-05-07T20:53:48.075Z,8.18
2023-05-07T20:56:50.229Z,5.50
2023-05-07T20:59:52.489Z,5.60
2023-05-07T21:02:54.167Z,5.85
2023-05-07T21:05:59.892Z,5.87
2023-05-07T21:09:01.886Z,5.47
2023-05-07T21:12:04.336Z,6.32
2023-05-07T21:15:07.095Z,5.70
2023-05-07T21:18:10.063Z,5.23
2023-05-07T21:21:14.428Z,5.00
2023-05-07T21:24:16.125Z,6.10
2023-05-07T21:27:18.285Z,7.10
2023-05-07T21:30:20.050Z,4.95
2023-05-07T21:33:21.679Z,5.80
2023-05-07T21:36:24.075Z,6.40
2023-05-07T21:39:26.308Z,7.35
2023-05-07T21:42:28.603Z,6.78
2023-05-07T21:45:30.443Z,5.93
2023-05-07T21:48:31.999Z,6.75
2023-05-07T21:51:34.644Z,6.15
2023-05-07T21:54:36.375Z,6.20
2023-05-07T21:57:41.975Z,5.80
2023-05-07T22:00:47.076Z,6.53
2023-05-07T22:03:48.978Z,7.22
2023-05-07T22:06:51.191Z,7.03
2023-05-07T22:09:52.846Z,7.20
2023-05-07T22:12:55.112Z,6.80
2023-05-07T22:15:58.443Z,7.07
2023-05-07T22:19:00.470Z,8.18
2023-05-07T22:22:03.450Z,6.90
2023-05-07T22:25:05.986Z,7.60
2023-05-07T22:28:08.055Z,7.25
2023-05-07T22:31:09.622Z,7.75
2023-05-07T22:34:12.088Z,7.97
2023-05-07T22:37:13.732Z,8.25
2023-05-07T22:40:15.887Z,6.93
2023-05-07T22:43:17.586Z,6.60
2023-05-07T22:46:20.553Z,7.85
2023-05-07T22:49:22.517Z,8.27
2023-05-07T22:52:24.767Z,10.50
2023-05-07T22:55:27.141Z,7.00
2023-05-07T22:58:28.804Z,7.17
2023-05-07T23:01:30.493Z,6.95
2023-05-07T23:04:32.568Z,7.78
2023-05-07T23:07:34.291Z,10.55
2023-05-07T23:10:37.695Z,9.30
2023-05-07T23:13:39.329Z,7.82
2023-05-07T23:16:41.480Z,6.80
2023-05-07T23:19:43.754Z,7.93
2023-05-07T23:22:45.860Z,7.35
2023-05-07T23:25:48.816Z,9.13
2023-05-07T23:28:50.516Z,8.10
2023-05-07T23:31:52.602Z,7.97
2023-05-07T23:34:56.822Z,7.13
2023-05-07T23:37:59.385Z,7.80
2023-05-07T23:41:01.374Z,8.95
2023-05-07T23:44:02.960Z,10.13
2023-05-07T23:47:05.491Z,10.10
2023-05-07T23:50:07.333Z,10.48
2023-05-07T23:53:10.549Z,10.02
2023-05-07T23:56:12.651Z,10.73
2023-05-07T23:59:14.208Z,11.02
